sensor_id;sensor_type;location;lat;lon;timestamp;P1;durP1;ratioP1;P2;durP2;ratioP2
30287;SDS011;17103;48.316;11.558;2023-04-28T00:02:15;3.25;;;2.70;;
30287;SDS011;17103;48.316;11.558;2023-04-28T00:04:41;4.57;;;2.90;;
30287;SDS011;17103;48.316;11.558;2023-04-28T00:07:06;5.95;;;3.15;;
30287;SDS011;17103;48.316;11.558;2023-04-28T00:09:32;4.57;;;2.95;;
30287;SDS011;17103;48.316;11.558;2023-04-28T00:11:57;6.82;;;2.92;;
30287;SDS011;17103;48.316;11.558;2023-04-28T00:14:23;5.90;;;3.03;;
30287;SDS011;17103;48.316;11.558;2023-04-28T00:16:49;6.18;;;2.85;;
30287;SDS011;17103;48.316;11.558;2023-04-28T00:19:15;5.65;;;4.18;;
30287;SDS011;17103;48.316;11.558;2023-04-28T00:21:40;3.20;;;2.58;;
30287;SDS011;17103;48.316;11.558;2023-04-28T00:24:07;5.28;;;2.72;;
30287;SDS011;17103;48.316;11.558;2023-04-28T00:26:33;4.05;;;2.70;;
30287;SDS011;17103;48.316;11.558;2023-04-28T00:28:59;4.65;;;2.92;;
30287;SDS011;17103;48.316;11.558;2023-04-28T00:31:24;3.65;;;2.95;;
30287;SDS011;17103;48.316;11.558;2023-04-28T00:33:50;4.90;;;3.45;;
30287;SDS011;17103;48.316;11.558;2023-04-28T00:36:15;4.65;;;3.22;;
30287;SDS011;17103;48.316;11.558;2023-04-28T00:38:41;3.38;;;2.83;;
30287;SDS011;17103;48.316;11.558;2023-04-28T00:41:08;3.95;;;2.95;;
30287;SDS011;17103;48.316;11.558;2023-04-28T00:43:46;5.95;;;2.95;;
30287;SDS011;17103;48.316;11.558;2023-04-28T00:46:20;4.70;;;3.13;;
30287;SDS011;17103;48.316;11.558;2023-04-28T00:48:49;4.47;;;2.95;;
30287;SDS011;17103;48.316;11.558;2023-04-28T00:51:15;3.13;;;2.72;;
30287;SDS011;17103;48.316;11.558;2023-04-28T00:53:42;6.22;;;3.38;;
30287;SDS011;17103;48.316;11.558;2023-04-28T00:56:08;4.45;;;3.25;;
30287;SDS011;17103;48.316;11.558;2023-04-28T00:58:34;6.22;;;2.80;;
30287;SDS011;17103;48.316;11.558;2023-04-28T01:01:03;4.70;;;2.92;;
30287;SDS011;17103;48.316;11.558;2023-04-28T01:03:31;7.40;;;2.97;;
30287;SDS011;17103;48.316;11.558;2023-04-28T01:06:00;4.57;;;3.15;;
30287;SDS011;17103;48.316;11.558;2023-04-28T01:08:29;6.15;;;2.75;;
30287;SDS011;17103;48.316;11.558;2023-04-28T01:10:56;5.57;;;3.10;;
30287;SDS011;17103;48.316;11.558;2023-04-28T01:13:22;6.03;;;3.03;;
30287;SDS011;17103;48.316;11.558;2023-04-28T01:15:48;5.20;;;3.05;;
30287;SDS011;17103;48.316;11.558;2023-04-28T01:18:14;4.22;;;3.05;;
30287;SDS011;17103;48.316;11.558;2023-04-28T01:20:40;6.72;;;2.88;;
30287;SDS011;17103;48.316;11.558;2023-04-28T01:23:13;4.70;;;3.67;;
30287;SDS011;17103;48.316;11.558;2023-04-28T01:25:40;3.53;;;2.83;;
30287;SDS011;17103;48.316;11.558;2023-04-28T01:28:07;4.75;;;3.30;;
30287;SDS011;17103;48.316;11.558;2023-04-28T01:30:33;6.07;;;2.95;;
30287;SDS011;17103;48.316;11.558;2023-04-28T01:32:59;9.00;;;3.45;;
30287;SDS011;17103;48.316;11.558;2023-04-28T01:35:26;6.07;;;3.80;;
30287;SDS011;17103;48.316;11.558;2023-04-28T01:37:52;4.93;;;2.88;;
30287;SDS011;17103;48.316;11.558;2023-04-28T01:40:19;4.78;;;2.88;;
30287;SDS011;17103;48.316;11.558;2023-04-28T01:42:45;3.38;;;2.38;;
30287;SDS011;17103;48.316;11.558;2023-04-28T01:45:11;4.25;;;2.90;;
30287;SDS011;17103;48.316;11.558;2023-04-28T01:47:37;5.35;;;2.90;;
30287;SDS011;17103;48.316;11.558;2023-04-28T01:50:03;3.13;;;2.83;;
30287;SDS011;17103;48.316;11.558;2023-04-28T01:52:29;4.40;;;2.85;;
30287;SDS011;17103;48.316;11.558;2023-04-28T01:54:58;9.05;;;3.45;;
30287;SDS011;17103;48.316;11.558;2023-04-28T01:57:24;3.17;;;2.67;;
30287;SDS011;17103;48.316;11.558;2023-04-28T01:59:50;5.05;;;3.40;;
30287;SDS011;17103;48.316;11.558;2023-04-28T02:02:17;3.45;;;2.67;;
30287;SDS011;17103;48.316;11.558;2023-04-28T02:04:42;4.57;;;3.08;;
30287;SDS011;17103;48.316;11.558;2023-04-28T02:07:08;3.67;;;2.58;;
30287;SDS011;17103;48.316;11.558;2023-04-28T02:09:33;4.47;;;3.30;;
30287;SDS011;17103;48.316;11.558;2023-04-28T02:11:59;5.57;;;3.35;;
30287;SDS011;17103;48.316;11.558;2023-04-28T02:14:26;5.05;;;3.20;;
30287;SDS011;17103;48.316;11.558;2023-04-28T02:16:58;3.53;;;2.90;;
30287;SDS011;17103;48.316;11.558;2023-04-28T02:19:23;4.75;;;3.38;;
30287;SDS011;17103;48.316;11.558;2023-04-28T02:21:49;3.40;;;2.60;;
30287;SDS011;17103;48.316;11.558;2023-04-28T02:24:15;3.75;;;2.90;;
30287;SDS011;17103;48.316;11.558;2023-04-28T02:26:41;4.80;;;3.38;;
30287;SDS011;17103;48.316;11.558;2023-04-28T02:29:06;3.50;;;2.60;;
30287;SDS011;17103;48.316;11.558;2023-04-28T02:31:32;4.78;;;3.17;;
30287;SDS011;17103;48.316;11.558;2023-04-28T02:33:57;3.75;;;2.38;;
30287;SDS011;17103;48.316;11.558;2023-04-28T02:36:23;5.80;;;3.03;;
30287;SDS011;17103;48.316;11.558;2023-04-28T02:38:49;4.38;;;2.60;;
30287;SDS011;17103;48.316;11.558;2023-04-28T02:41:14;5.05;;;3.00;;
30287;SDS011;17103;48.316;11.558;2023-04-28T02:43:40;3.67;;;2.97;;
30287;SDS011;17103;48.316;11.558;2023-04-28T02:46:06;4.80;;;3.60;;
30287;SDS011;17103;48.316;11.558;2023-04-28T02:48:32;5.75;;;3.10;;
30287;SDS011;17103;48.316;11.558;2023-04-28T02:51:00;4.90;;;3.45;;
30287;SDS011;17103;48.316;11.558;2023-04-28T02:53:26;4.40;;;3.40;;
30287;SDS011;17103;48.316;11.558;2023-04-28T02:55:52;8.95;;;3.53;;
30287;SDS011;17103;48.316;11.558;2023-04-28T02:58:18;5.03;;;4.03;;
30287;SDS011;17103;48.316;11.558;2023-04-28T03:00:44;4.90;;;4.10;;
30287;SDS011;17103;48.316;11.558;2023-04-28T03:03:09;5.72;;;3.83;;
30287;SDS011;17103;48.316;11.558;2023-04-28T03:05:35;4.40;;;3.25;;
30287;SDS011;17103;48.316;11.558;2023-04-28T03:08:01;7.25;;;3.50;;
30287;SDS011;17103;48.316;11.558;2023-04-28T03:10:26;7.85;;;4.25;;
30287;SDS011;17103;48.316;11.558;2023-04-28T03:12:52;6.43;;;3.42;;
30287;SDS011;17103;48.316;11.558;2023-04-28T03:15:18;6.72;;;4.18;;
30287;SDS011;17103;48.316;11.558;2023-04-28T03:17:43;6.45;;;4.22;;
30287;SDS011;17103;48.316;11.558;2023-04-28T03:20:09;5.82;;;4.07;;
30287;SDS011;17103;48.316;11.558;2023-04-28T03:22:35;4.72;;;3.58;;
30287;SDS011;17103;48.316;11.558;2023-04-28T03:25:01;6.63;;;3.38;;
30287;SDS011;17103;48.316;11.558;2023-04-28T03:27:27;6.45;;;3.35;;
30287;SDS011;17103;48.316;11.558;2023-04-28T03:29:53;4.78;;;3.85;;
30287;SDS011;17103;48.316;11.558;2023-04-28T03:32:18;4.90;;;3.15;;
30287;SDS011;17103;48.316;11.558;2023-04-28T03:34:44;3.85;;;2.92;;
30287;SDS011;17103;48.316;11.558;2023-04-28T03:37:10;3.58;;;3.00;;
30287;SDS011;17103;48.316;11.558;2023-04-28T03:39:35;3.60;;;2.83;;
30287;SDS011;17103;48.316;11.558;2023-04-28T03:42:02;3.50;;;2.63;;
30287;SDS011;17103;48.316;11.558;2023-04-28T03:44:27;4.95;;;3.00;;
30287;SDS011;17103;48.316;11.558;2023-04-28T03:46:53;3.63;;;2.92;;
30287;SDS011;17103;48.316;11.558;2023-04-28T03:49:19;4.53;;;2.90;;
30287;SDS011;17103;48.316;11.558;2023-04-28T03:51:50;4.80;;;2.70;;
30287;SDS011;17103;48.316;11.558;2023-04-28T03:54:16;3.65;;;2.65;;
30287;SDS011;17103;48.316;11.558;2023-04-28T03:56:41;6.03;;;2.42;;
30287;SDS011;17103;48.316;11.558;2023-04-28T03:59:08;4.45;;;2.72;;
30287;SDS011;17103;48.316;11.558;2023-04-28T04:01:35;3.42;;;2.50;;
30287;SDS011;17103;48.316;11.558;2023-04-28T04:04:01;2.97;;;2.22;;
30287;SDS011;17103;48.316;11.558;2023-04-28T04:06:33;4.05;;;2.38;;
30287;SDS011;17103;48.316;11.558;2023-04-28T04:08:59;3.38;;;2.80;;
30287;SDS011;17103;48.316;11.558;2023-04-28T04:11:25;4.65;;;2.78;;
30287;SDS011;17103;48.316;11.558;2023-04-28T04:13:51;3.05;;;2.47;;
30287;SDS011;17103;48.316;11.558;2023-04-28T04:16:16;4.05;;;2.60;;
30287;SDS011;17103;48.316;11.558;2023-04-28T04:18:42;6.45;;;3.65;;
30287;SDS011;17103;48.316;11.558;2023-04-28T04:21:08;4.55;;;2.45;;
30287;SDS011;17103;48.316;11.558;2023-04-28T04:23:33;4.30;;;2.22;;
30287;SDS011;17103;48.316;11.558;2023-04-28T04:25:59;3.58;;;2.10;;
30287;SDS011;17103;48.316;11.558;2023-04-28T04:28:25;3.78;;;2.90;;
30287;SDS011;17103;48.316;11.558;2023-04-28T04:30:50;3.55;;;2.30;;
30287;SDS011;17103;48.316;11.558;2023-04-28T04:33:16;4.45;;;2.35;;
30287;SDS011;17103;48.316;11.558;2023-04-28T04:35:41;3.63;;;2.10;;
30287;SDS011;17103;48.316;11.558;2023-04-28T04:38:07;2.85;;;1.58;;
30287;SDS011;17103;48.316;11.558;2023-04-28T04:40:33;4.18;;;2.13;;
30287;SDS011;17103;48.316;11.558;2023-04-28T04:42:59;3.35;;;2.38;;
30287;SDS011;17103;48.316;11.558;2023-04-28T04:45:25;4.43;;;2.90;;
30287;SDS011;17103;48.316;11.558;2023-04-28T04:47:51;4.60;;;2.67;;
30287;SDS011;17103;48.316;11.558;2023-04-28T04:50:17;3.85;;;2.50;;
30287;SDS011;17103;48.316;11.558;2023-04-28T04:52:45;4.70;;;2.85;;
30287;SDS011;17103;48.316;11.558;2023-04-28T04:55:10;4.60;;;2.97;;
30287;SDS011;17103;48.316;11.558;2023-04-28T04:57:36;5.68;;;3.00;;
30287;SDS011;17103;48.316;11.558;2023-04-28T05:00:02;4.35;;;2.60;;
30287;SDS011;17103;48.316;11.558;2023-04-28T05:02:29;4.57;;;3.08;;
30287;SDS011;17103;48.316;11.558;2023-04-28T05:04:54;3.25;;;2.95;;
30287;SDS011;17103;48.316;11.558;2023-04-28T05:07:20;4.97;;;2.95;;
30287;SDS011;17103;48.316;11.558;2023-04-28T05:09:48;4.85;;;3.20;;
30287;SDS011;17103;48.316;11.558;2023-04-28T05:12:14;5.70;;;4.03;;
30287;SDS011;17103;48.316;11.558;2023-04-28T05:14:40;5.72;;;3.67;;
30287;SDS011;17103;48.316;11.558;2023-04-28T05:17:06;5.15;;;3.25;;
30287;SDS011;17103;48.316;11.558;2023-04-28T05:19:32;6.00;;;3.60;;
30287;SDS011;17103;48.316;11.558;2023-04-28T05:21:57;4.07;;;3.28;;
30287;SDS011;17103;48.316;11.558;2023-04-28T05:24:24;5.75;;;2.88;;
30287;SDS011;17103;48.316;11.558;2023-04-28T05:26:50;5.35;;;3.33;;
30287;SDS011;17103;48.316;11.558;2023-04-28T05:29:18;5.43;;;3.42;;
30287;SDS011;17103;48.316;11.558;2023-04-28T05:31:44;5.55;;;3.40;;
30287;SDS011;17103;48.316;11.558;2023-04-28T05:34:10;4.20;;;3.00;;
30287;SDS011;17103;48.316;11.558;2023-04-28T05:36:36;3.33;;;2.47;;
30287;SDS011;17103;48.316;11.558;2023-04-28T05:39:02;5.07;;;3.17;;
30287;SDS011;17103;48.316;11.558;2023-04-28T05:41:41;10.05;;;4.03;;
30287;SDS011;17103;48.316;11.558;2023-04-28T05:44:08;6.00;;;2.88;;
30287;SDS011;17103;48.316;11.558;2023-04-28T05:46:33;5.60;;;2.75;;
30287;SDS011;17103;48.316;11.558;2023-04-28T05:49:01;3.55;;;2.50;;
30287;SDS011;17103;48.316;11.558;2023-04-28T05:51:30;3.40;;;2.80;;
30287;SDS011;17103;48.316;11.558;2023-04-28T05:53:55;4.85;;;2.40;;
30287;SDS011;17103;48.316;11.558;2023-04-28T05:56:22;6.32;;;2.80;;
30287;SDS011;17103;48.316;11.558;2023-04-28T05:58:47;6.68;;;2.65;;
30287;SDS011;17103;48.316;11.558;2023-04-28T06:01:16;3.05;;;2.42;;
30287;SDS011;17103;48.316;11.558;2023-04-28T06:03:41;3.25;;;2.35;;
30287;SDS011;17103;48.316;11.558;2023-04-28T06:06:08;3.38;;;2.47;;
30287;SDS011;17103;48.316;11.558;2023-04-28T06:08:34;6.53;;;2.65;;
30287;SDS011;17103;48.316;11.558;2023-04-28T06:11:00;4.45;;;2.30;;
30287;SDS011;17103;48.316;11.558;2023-04-28T06:13:26;4.95;;;2.28;;
30287;SDS011;17103;48.316;11.558;2023-04-28T06:15:51;3.33;;;2.42;;
30287;SDS011;17103;48.316;11.558;2023-04-28T06:18:17;4.53;;;2.58;;
30287;SDS011;17103;48.316;11.558;2023-04-28T06:20:43;4.82;;;3.58;;
30287;SDS011;17103;48.316;11.558;2023-04-28T06:23:08;6.10;;;3.20;;
30287;SDS011;17103;48.316;11.558;2023-04-28T06:25:34;4.50;;;2.88;;
30287;SDS011;17103;48.316;11.558;2023-04-28T06:28:01;3.35;;;2.53;;
30287;SDS011;17103;48.316;11.558;2023-04-28T06:30:26;3.47;;;2.17;;
30287;SDS011;17103;48.316;11.558;2023-04-28T06:32:53;4.78;;;2.15;;
30287;SDS011;17103;48.316;11.558;2023-04-28T06:35:21;3.10;;;2.05;;
30287;SDS011;17103;48.316;11.558;2023-04-28T06:37:47;5.80;;;2.22;;
30287;SDS011;17103;48.316;11.558;2023-04-28T06:40:14;3.30;;;2.30;;
30287;SDS011;17103;48.316;11.558;2023-04-28T06:42:39;3.25;;;1.85;;
30287;SDS011;17103;48.316;11.558;2023-04-28T06:45:08;2.97;;;2.15;;
30287;SDS011;17103;48.316;11.558;2023-04-28T06:47:36;2.97;;;2.25;;
30287;SDS011;17103;48.316;11.558;2023-04-28T06:50:01;5.38;;;2.72;;
30287;SDS011;17103;48.316;11.558;2023-04-28T06:52:27;5.22;;;2.47;;
30287;SDS011;17103;48.316;11.558;2023-04-28T06:54:54;3.40;;;2.10;;
30287;SDS011;17103;48.316;11.558;2023-04-28T06:57:20;4.03;;;2.10;;
30287;SDS011;17103;48.316;11.558;2023-04-28T06:59:45;4.13;;;2.00;;
30287;SDS011;17103;48.316;11.558;2023-04-28T07:02:11;3.50;;;2.22;;
30287;SDS011;17103;48.316;11.558;2023-04-28T07:04:37;2.20;;;1.40;;
30287;SDS011;17103;48.316;11.558;2023-04-28T07:07:04;4.80;;;2.00;;
30287;SDS011;17103;48.316;11.558;2023-04-28T07:09:34;3.13;;;2.28;;
30287;SDS011;17103;48.316;11.558;2023-04-28T07:12:00;2.88;;;1.60;;
30287;SDS011;17103;48.316;11.558;2023-04-28T07:14:28;1.42;;;1.27;;
30287;SDS011;17103;48.316;11.558;2023-04-28T07:16:55;3.58;;;1.88;;
30287;SDS011;17103;48.316;11.558;2023-04-28T07:19:21;4.63;;;2.08;;
30287;SDS011;17103;48.316;11.558;2023-04-28T07:21:50;5.45;;;1.55;;
30287;SDS011;17103;48.316;11.558;2023-04-28T07:24:15;4.95;;;1.73;;
30287;SDS011;17103;48.316;11.558;2023-04-28T07:26:41;4.18;;;1.70;;
30287;SDS011;17103;48.316;11.558;2023-04-28T07:29:07;2.97;;;1.42;;
30287;SDS011;17103;48.316;11.558;2023-04-28T07:31:34;3.08;;;1.88;;
30287;SDS011;17103;48.316;11.558;2023-04-28T07:34:00;2.08;;;1.60;;
30287;SDS011;17103;48.316;11.558;2023-04-28T07:36:26;2.83;;;1.55;;
30287;SDS011;17103;48.316;11.558;2023-04-28T07:38:52;4.78;;;1.48;;
30287;SDS011;17103;48.316;11.558;2023-04-28T07:41:18;1.98;;;1.42;;
30287;SDS011;17103;48.316;11.558;2023-04-28T07:43:43;2.22;;;1.70;;
30287;SDS011;17103;48.316;11.558;2023-04-28T07:46:09;4.00;;;1.80;;
30287;SDS011;17103;48.316;11.558;2023-04-28T07:48:36;3.45;;;1.85;;
30287;SDS011;17103;48.316;11.558;2023-04-28T07:51:02;3.20;;;1.67;;
30287;SDS011;17103;48.316;11.558;2023-04-28T07:53:28;3.25;;;1.70;;
30287;SDS011;17103;48.316;11.558;2023-04-28T07:55:53;2.47;;;1.55;;
30287;SDS011;17103;48.316;11.558;2023-04-28T07:58:19;2.58;;;1.40;;
30287;SDS011;17103;48.316;11.558;2023-04-28T08:00:45;3.45;;;1.55;;
30287;SDS011;17103;48.316;11.558;2023-04-28T08:03:11;2.30;;;1.75;;
30287;SDS011;17103;48.316;11.558;2023-04-28T08:05:39;2.47;;;1.55;;
30287;SDS011;17103;48.316;11.558;2023-04-28T08:08:06;3.63;;;1.63;;
30287;SDS011;17103;48.316;11.558;2023-04-28T08:10:32;2.03;;;1.52;;
30287;SDS011;17103;48.316;11.558;2023-04-28T08:12:58;2.58;;;1.63;;
30287;SDS011;17103;48.316;11.558;2023-04-28T08:15:25;3.20;;;2.00;;
30287;SDS011;17103;48.316;11.558;2023-04-28T08:17:51;6.00;;;1.70;;
30287;SDS011;17103;48.316;11.558;2023-04-28T08:20:18;4.75;;;2.00;;
30287;SDS011;17103;48.316;11.558;2023-04-28T08:22:45;2.53;;;1.80;;
30287;SDS011;17103;48.316;11.558;2023-04-28T08:25:12;4.47;;;1.90;;
30287;SDS011;17103;48.316;11.558;2023-04-28T08:27:41;4.30;;;2.05;;
30287;SDS011;17103;48.316;11.558;2023-04-28T08:32:41;4.97;;;2.92;;
30287;SDS011;17103;48.316;11.558;2023-04-28T08:35:17;4.47;;;2.28;;
30287;SDS011;17103;48.316;11.558;2023-04-28T08:37:43;3.90;;;2.03;;
30287;SDS011;17103;48.316;11.558;2023-04-28T08:40:09;3.97;;;2.22;;
30287;SDS011;17103;48.316;11.558;2023-04-28T08:42:35;3.70;;;1.67;;
30287;SDS011;17103;48.316;11.558;2023-04-28T08:45:02;4.30;;;1.80;;
30287;SDS011;17103;48.316;11.558;2023-04-28T08:47:33;4.40;;;2.72;;
30287;SDS011;17103;48.316;11.558;2023-04-28T08:50:07;2.67;;;1.83;;
30287;SDS011;17103;48.316;11.558;2023-04-28T08:52:34;2.85;;;2.22;;
30287;SDS011;17103;48.316;11.558;2023-04-28T08:55:01;3.63;;;2.00;;
30287;SDS011;17103;48.316;11.558;2023-04-28T08:57:38;2.92;;;2.03;;
30287;SDS011;17103;48.316;11.558;2023-04-28T09:00:08;5.38;;;2.03;;
30287;SDS011;17103;48.316;11.558;2023-04-28T09:02:36;2.25;;;1.40;;
30287;SDS011;17103;48.316;11.558;2023-04-28T09:05:02;1.92;;;0.90;;
30287;SDS011;17103;48.316;11.558;2023-04-28T09:07:30;1.92;;;0.85;;
30287;SDS011;17103;48.316;11.558;2023-04-28T09:12:41;2.10;;;0.80;;
30287;SDS011;17103;48.316;11.558;2023-04-28T09:15:06;2.58;;;0.75;;
30287;SDS011;17103;48.316;11.558;2023-04-28T09:17:46;2.05;;;1.13;;
30287;SDS011;17103;48.316;11.558;2023-04-28T09:20:25;1.30;;;0.70;;
30287;SDS011;17103;48.316;11.558;2023-04-28T09:22:52;0.98;;;0.65;;
30287;SDS011;17103;48.316;11.558;2023-04-28T09:25:19;1.52;;;0.95;;
30287;SDS011;17103;48.316;11.558;2023-04-28T09:27:48;1.08;;;0.70;;
30287;SDS011;17103;48.316;11.558;2023-04-28T09:30:16;1.38;;;0.68;;
30287;SDS011;17103;48.316;11.558;2023-04-28T09:32:42;2.00;;;1.25;;
30287;SDS011;17103;48.316;11.558;2023-04-28T09:35:09;2.08;;;0.73;;
30287;SDS011;17103;48.316;11.558;2023-04-28T09:37:36;3.50;;;0.70;;
30287;SDS011;17103;48.316;11.558;2023-04-28T09:40:07;0.90;;;0.65;;
30287;SDS011;17103;48.316;11.558;2023-04-28T09:42:39;2.28;;;0.65;;
30287;SDS011;17103;48.316;11.558;2023-04-28T09:45:06;1.73;;;0.63;;
30287;SDS011;17103;48.316;11.558;2023-04-28T09:47:35;2.53;;;1.00;;
30287;SDS011;17103;48.316;11.558;2023-04-28T09:50:05;1.08;;;0.55;;
30287;SDS011;17103;48.316;11.558;2023-04-28T09:52:34;1.40;;;0.80;;
30287;SDS011;17103;48.316;11.558;2023-04-28T09:55:02;1.40;;;0.65;;
30287;SDS011;17103;48.316;11.558;2023-04-28T09:57:30;1.00;;;0.47;;
30287;SDS011;17103;48.316;11.558;2023-04-28T09:59:58;1.35;;;0.50;;
30287;SDS011;17103;48.316;11.558;2023-04-28T10:02:25;1.73;;;0.50;;
30287;SDS011;17103;48.316;11.558;2023-04-28T10:04:53;1.70;;;0.57;;
30287;SDS011;17103;48.316;11.558;2023-04-28T10:07:20;2.50;;;1.35;;
30287;SDS011;17103;48.316;11.558;2023-04-28T10:09:46;1.75;;;1.00;;
30287;SDS011;17103;48.316;11.558;2023-04-28T10:12:22;2.05;;;0.70;;
30287;SDS011;17103;48.316;11.558;2023-04-28T10:14:51;2.33;;;0.45;;
30287;SDS011;17103;48.316;11.558;2023-04-28T10:17:20;0.93;;;0.40;;
30287;SDS011;17103;48.316;11.558;2023-04-28T10:19:47;3.42;;;0.57;;
30287;SDS011;17103;48.316;11.558;2023-04-28T10:27:49;1.20;;;0.57;;
30287;SDS011;17103;48.316;11.558;2023-04-28T10:30:17;0.88;;;0.60;;
30287;SDS011;17103;48.316;11.558;2023-04-28T10:32:44;1.10;;;0.60;;
30287;SDS011;17103;48.316;11.558;2023-04-28T10:38:06;0.80;;;0.43;;
30287;SDS011;17103;48.316;11.558;2023-04-28T10:40:44;1.58;;;0.47;;
30287;SDS011;17103;48.316;11.558;2023-04-28T10:43:11;1.23;;;0.63;;
30287;SDS011;17103;48.316;11.558;2023-04-28T10:56:12;1.00;;;0.50;;
30287;SDS011;17103;48.316;11.558;2023-04-28T11:03:50;1.67;;;0.40;;
30287;SDS011;17103;48.316;11.558;2023-04-28T11:17:03;1.02;;;0.80;;
30287;SDS011;17103;48.316;11.558;2023-04-28T11:19:42;1.20;;;0.60;;
30287;SDS011;17103;48.316;11.558;2023-04-28T11:22:13;1.00;;;0.77;;
30287;SDS011;17103;48.316;11.558;2023-04-28T11:24:39;1.40;;;0.90;;
30287;SDS011;17103;48.316;11.558;2023-04-28T11:27:05;1.75;;;1.08;;
30287;SDS011;17103;48.316;11.558;2023-04-28T11:29:37;2.25;;;0.90;;
30287;SDS011;17103;48.316;11.558;2023-04-28T11:32:07;1.90;;;0.85;;
30287;SDS011;17103;48.316;11.558;2023-04-28T11:34:34;0.88;;;0.40;;
30287;SDS011;17103;48.316;11.558;2023-04-28T11:37:00;2.05;;;0.70;;
30287;SDS011;17103;48.316;11.558;2023-04-28T11:39:37;0.85;;;0.52;;
30287;SDS011;17103;48.316;11.558;2023-04-28T11:42:08;2.28;;;0.50;;
30287;SDS011;17103;48.316;11.558;2023-04-28T11:44:34;2.40;;;0.40;;
30287;SDS011;17103;48.316;11.558;2023-04-28T11:47:01;1.35;;;0.52;;
30287;SDS011;17103;48.316;11.558;2023-04-28T11:49:28;0.73;;;0.40;;
30287;SDS011;17103;48.316;11.558;2023-04-28T11:52:02;0.98;;;0.73;;
30287;SDS011;17103;48.316;11.558;2023-04-28T11:54:29;2.17;;;0.60;;
30287;SDS011;17103;48.316;11.558;2023-04-28T11:56:56;1.08;;;0.75;;
30287;SDS011;17103;48.316;11.558;2023-04-28T11:59:23;0.77;;;0.55;;
30287;SDS011;17103;48.316;11.558;2023-04-28T12:01:51;0.88;;;0.60;;
30287;SDS011;17103;48.316;11.558;2023-04-28T12:09:31;0.70;;;0.50;;
30287;SDS011;17103;48.316;11.558;2023-04-28T12:12:04;0.68;;;0.40;;
30287;SDS011;17103;48.316;11.558;2023-04-28T12:17:35;0.32;;;0.25;;
30287;SDS011;17103;48.316;11.558;2023-04-28T12:20:32;0.40;;;0.30;;
30287;SDS011;17103;48.316;11.558;2023-04-28T12:23:00;2.63;;;0.38;;
30287;SDS011;17103;48.316;11.558;2023-04-28T12:25:26;0.47;;;0.25;;
30287;SDS011;17103;48.316;11.558;2023-04-28T12:27:59;1.08;;;0.43;;
30287;SDS011;17103;48.316;11.558;2023-04-28T12:30:27;1.20;;;0.80;;
30287;SDS011;17103;48.316;11.558;2023-04-28T12:35:26;2.97;;;0.50;;
30287;SDS011;17103;48.316;11.558;2023-04-28T12:37:54;1.25;;;0.50;;
30287;SDS011;17103;48.316;11.558;2023-04-28T12:40:21;1.50;;;0.60;;
30287;SDS011;17103;48.316;11.558;2023-04-28T12:42:47;0.60;;;0.40;;
30287;SDS011;17103;48.316;11.558;2023-04-28T12:45:12;1.45;;;0.75;;
30287;SDS011;17103;48.316;11.558;2023-04-28T12:47:41;0.60;;;0.40;;
30287;SDS011;17103;48.316;11.558;2023-04-28T12:50:06;0.90;;;0.68;;
30287;SDS011;17103;48.316;11.558;2023-04-28T12:52:34;2.30;;;1.30;;
30287;SDS011;17103;48.316;11.558;2023-04-28T12:55:02;4.32;;;1.67;;
30287;SDS011;17103;48.316;11.558;2023-04-28T12:57:28;1.08;;;0.57;;
30287;SDS011;17103;48.316;11.558;2023-04-28T12:59:54;1.90;;;0.70;;
30287;SDS011;17103;48.316;11.558;2023-04-28T13:02:21;1.45;;;0.60;;
30287;SDS011;17103;48.316;11.558;2023-04-28T13:04:47;1.27;;;0.63;;
30287;SDS011;17103;48.316;11.558;2023-04-28T13:07:13;1.95;;;0.73;;
30287;SDS011;17103;48.316;11.558;2023-04-28T13:09:41;1.20;;;0.80;;
30287;SDS011;17103;48.316;11.558;2023-04-28T13:12:07;0.80;;;0.68;;
30287;SDS011;17103;48.316;11.558;2023-04-28T13:14:35;0.95;;;0.60;;
30287;SDS011;17103;48.316;11.558;2023-04-28T13:17:02;0.93;;;0.70;;
30287;SDS011;17103;48.316;11.558;2023-04-28T13:19:29;0.70;;;0.60;;
30287;SDS011;17103;48.316;11.558;2023-04-28T13:21:57;1.00;;;0.40;;
30287;SDS011;17103;48.316;11.558;2023-04-28T13:24:23;0.50;;;0.50;;
30287;SDS011;17103;48.316;11.558;2023-04-28T13:26:48;0.52;;;0.52;;
30287;SDS011;17103;48.316;11.558;2023-04-28T13:29:17;2.47;;;1.00;;
30287;SDS011;17103;48.316;11.558;2023-04-28T13:31:43;2.05;;;1.00;;
30287;SDS011;17103;48.316;11.558;2023-04-28T13:34:09;0.55;;;0.50;;
30287;SDS011;17103;48.316;11.558;2023-04-28T13:36:39;0.80;;;0.60;;
30287;SDS011;17103;48.316;11.558;2023-04-28T13:39:10;3.92;;;0.70;;
30287;SDS011;17103;48.316;11.558;2023-04-28T13:41:38;1.75;;;0.40;;
30287;SDS011;17103;48.316;11.558;2023-04-28T13:44:03;1.67;;;0.82;;
30287;SDS011;17103;48.316;11.558;2023-04-28T13:46:31;2.80;;;1.20;;
30287;SDS011;17103;48.316;11.558;2023-04-28T13:48:57;1.67;;;1.20;;
30287;SDS011;17103;48.316;11.558;2023-04-28T13:51:22;1.85;;;1.27;;
30287;SDS011;17103;48.316;11.558;2023-04-28T13:53:49;2.67;;;1.73;;
30287;SDS011;17103;48.316;11.558;2023-04-28T13:56:16;1.70;;;0.80;;
30287;SDS011;17103;48.316;11.558;2023-04-28T13:58:44;2.03;;;0.93;;
30287;SDS011;17103;48.316;11.558;2023-04-28T14:01:10;1.42;;;0.80;;
30287;SDS011;17103;48.316;11.558;2023-04-28T14:03:36;1.25;;;0.60;;
30287;SDS011;17103;48.316;11.558;2023-04-28T14:06:02;1.13;;;0.82;;
30287;SDS011;17103;48.316;11.558;2023-04-28T14:08:29;1.40;;;0.70;;
30287;SDS011;17103;48.316;11.558;2023-04-28T14:11:03;2.92;;;0.80;;
30287;SDS011;17103;48.316;11.558;2023-04-28T14:13:28;1.20;;;0.60;;
30287;SDS011;17103;48.316;11.558;2023-04-28T14:15:55;1.95;;;1.08;;
30287;SDS011;17103;48.316;11.558;2023-04-28T14:18:23;1.60;;;0.73;;
30287;SDS011;17103;48.316;11.558;2023-04-28T14:20:49;2.55;;;1.40;;
30287;SDS011;17103;48.316;11.558;2023-04-28T14:23:15;1.45;;;1.25;;
30287;SDS011;17103;48.316;11.558;2023-04-28T14:25:42;1.73;;;0.80;;
30287;SDS011;17103;48.316;11.558;2023-04-28T14:28:08;1.55;;;0.90;;
30287;SDS011;17103;48.316;11.558;2023-04-28T14:30:47;0.80;;;0.32;;
30287;SDS011;17103;48.316;11.558;2023-04-28T14:33:14;2.08;;;0.80;;
30287;SDS011;17103;48.316;11.558;2023-04-28T14:35:42;3.47;;;1.92;;
30287;SDS011;17103;48.316;11.558;2023-04-28T14:38:08;1.85;;;0.73;;
30287;SDS011;17103;48.316;11.558;2023-04-28T14:40:34;2.80;;;0.88;;
30287;SDS011;17103;48.316;11.558;2023-04-28T14:42:59;3.13;;;1.50;;
30287;SDS011;17103;48.316;11.558;2023-04-28T14:45:26;5.90;;;2.72;;
30287;SDS011;17103;48.316;11.558;2023-04-28T14:47:51;5.63;;;3.42;;
30287;SDS011;17103;48.316;11.558;2023-04-28T14:50:19;3.78;;;0.70;;
30287;SDS011;17103;48.316;11.558;2023-04-28T14:52:45;1.35;;;0.70;;
30287;SDS011;17103;48.316;11.558;2023-04-28T14:55:13;0.75;;;0.38;;
30287;SDS011;17103;48.316;11.558;2023-04-28T14:57:40;1.63;;;0.30;;
30287;SDS011;17103;48.316;11.558;2023-04-28T15:00:06;0.82;;;0.30;;
30287;SDS011;17103;48.316;11.558;2023-04-28T15:02:33;0.45;;;0.30;;
30287;SDS011;17103;48.316;11.558;2023-04-28T15:05:00;1.17;;;0.57;;
30287;SDS011;17103;48.316;11.558;2023-04-28T15:07:28;0.90;;;0.50;;
30287;SDS011;17103;48.316;11.558;2023-04-28T15:10:08;1.20;;;0.63;;
30287;SDS011;17103;48.316;11.558;2023-04-28T15:12:37;1.20;;;0.80;;
30287;SDS011;17103;48.316;11.558;2023-04-28T15:17:40;1.08;;;0.47;;
30287;SDS011;17103;48.316;11.558;2023-04-28T15:20:22;2.35;;;0.73;;
30287;SDS011;17103;48.316;11.558;2023-04-28T15:22:55;1.75;;;0.70;;
30287;SDS011;17103;48.316;11.558;2023-04-28T15:25:26;2.13;;;0.95;;
30287;SDS011;17103;48.316;11.558;2023-04-28T15:27:56;2.33;;;0.95;;